Latest Coastal Weather Observations for Groote Eylandt Airport

IDD60701

Issued at 9:01 am CST Saturday 30 April 2016 (issued every 10 minutes, with the page automatically refreshed every 10 minutes)

About coastal observations | Map of coastal stations | Coastal observations for NT | Marine services | Other Formats
Station Details ID: 014518 Name: GROOTE EYLANDT AIRPORT Lat: -13.97 Lon: 136.46 Height: 13.7 m
Data from the previous 72 hours. | See also: Recent months at Groote Eylandt Airport
Date/Time
CST
Temp

°C
Wind Pressure Rain
since 9am
mm
Weather Cloud Vis
km
Sea
Height
m
Swell
Dir
 
Speed
knots
Gust
knots
hPa Trend Height
m
Period
s
Dir
30/09:00am 31.5 E 14 23 1012.8 - 0.0 - Partly cloudy 10 - - - -
30/08:30am 30.7 E 14 20 1012.6 - 0.0 - Partly cloudy 10 - - - -
30/08:00am 29.9 ENE 7 13 1012.7 - 0.0 - - 10 - - - -
30/07:30am 26.6 CALM 0 0 1012.5 - 0.0 - - 10 - - - -
30/07:00am 25.5 CALM 0 0 1012.1 - 0.0 - - 10 - - - -
30/06:30am 25.6 ENE 1 3 1011.9 - 0.0 - - 10 - - - -
30/06:00am 25.3 CALM 0 0 1011.3 - 0.0 - - 10 - - - -
30/05:30am 25.6 CALM 0 2 1010.9 - 0.0 - - 10 - - - -
30/05:00am 25.8 ESE 3 4 1010.5 - 0.0 - - 10 - - - -
30/04:30am 25.5 SE 2 4 1010.4 - 0.0 - - 10 - - - -
30/04:00am 25.5 CALM 0 0 1010.3 - 0.0 - - 10 - - - -
30/03:30am 25.5 CALM 0 0 1010.0 - 0.0 - - 10 - - - -
30/03:00am 26.3 CALM 0 0 1010.2 - 0.0 - Partly cloudy 10 - - - -
30/02:30am 26.0 CALM 0 0 1010.1 - 0.0 - Partly cloudy 10 - - - -
30/02:00am 26.1 CALM 0 0 1010.5 - 0.0 - Cloudy 10 - - - -
30/01:30am 26.2 SE 3 4 1010.7 - 0.0 - Partly cloudy 10 - - - -
30/01:00am 26.5 CALM 0 0 1011.0 - 0.0 - - 10 - - - -
30/12:30am 26.8 CALM 0 0 1011.4 - 0.0 - - 10 - - - -
30/12:00am 27.7 CALM 0 0 1011.7 - 0.0 - - 10 - - - -
 
Date/Time
CST
Temp

°C
Wind Pressure Rain
since 9am
mm
Weather Cloud Vis
km
Sea
Height
m
Swell
Dir
 
Speed
knots
Gust
knots
hPa Trend Height
m
Period
s
Dir
29/11:30pm 28.0 SE 4 6 1012.1 - 0.0 - Cloudy 10 - - - -
29/11:00pm 27.8 SSE 3 4 1012.7 - 0.0 - Partly cloudy 10 - - - -
29/10:30pm 28.1 SE 3 4 1012.8 - 0.0 - Partly cloudy 10 - - - -
29/10:00pm 28.2 ESE 3 4 1012.9 - 0.0 - Cloudy 10 - - - -
29/09:30pm 28.5 ESE 4 5 1012.8 - 0.0 - Partly cloudy 10 - - - -
29/09:00pm 28.7 ESE 4 6 1012.9 - 0.0 - Cloudy 10 - - - -
29/08:30pm 28.5 E 3 5 1012.6 - 0.0 - Partly cloudy 10 - - - -
29/08:00pm 28.4 ESE 5 8 1012.2 - 0.0 - Partly cloudy 10 - - - -
29/07:30pm 28.5 ESE 3 4 1011.8 - 0.0 - Partly cloudy 10 - - - -
29/07:00pm 28.9 ESE 4 5 1011.3 - 0.0 - Partly cloudy 10 - - - -
29/06:30pm 29.6 ESE 6 8 1011.3 - 0.0 - - 10 - - - -
29/06:00pm 30.2 E 5 6 1011.0 - 0.0 - Mostly clear 10 - - - -
29/05:30pm 30.8 ESE 7 10 1010.5 - 0.0 - - 10 - - - -
29/05:00pm 31.6 E 9 13 1010.2 - 0.0 - - 10 - - - -
29/04:30pm 31.6 E 11 16 1010.1 - 0.0 - - 10 - - - -
29/04:00pm 31.6 ESE 7 13 1010.0 - 0.0 - Partly cloudy 10 - - - -
29/03:30pm 30.9 ESE 7 15 1010.2 - 0.0 - Partly cloudy 10 - - - -
29/03:00pm 32.5 E 10 14 1010.0 - 0.0 - Cloudy 10 - - - -
29/02:30pm 31.4 E 10 15 1010.2 - 0.0 - Partly cloudy 10 - - - -
29/02:00pm 32.3 E 9 16 1010.1 - 0.0 - Partly cloudy 10 - - - -
29/01:30pm 32.9 ESE 9 12 1010.5 - 0.0 - Partly cloudy 10 - - - -
29/01:00pm 33.2 E 11 15 1010.8 - 0.0 - Partly cloudy 10 - - - -
29/12:30pm 32.6 E 11 16 1011.4 - 0.0 - Partly cloudy 10 - - - -
29/12:00pm 32.3 E 13 17 1011.9 - 0.0 - Mostly cloudy 10 - - - -
29/11:30am 30.8 ENE 6 8 1012.6 - 0.0 - Cloudy 10 - - - -
29/11:00am 29.2 E 6 7 1012.9 - 0.0 - Partly cloudy 10 - - - -
29/10:30am 29.5 E 11 15 1013.0 - 0.0 - Partly cloudy 10 - - - -
29/10:00am 30.5 E 8 11 1013.0 - 0.0 - Partly cloudy 10 - - - -
29/09:30am 30.9 E 4 7 1013.0 - 0.0 - Partly cloudy 10 - - - -
29/09:00am 29.9 SSE 1 4 1013.0 - 2.0 - Mostly clear 10 - - - -
29/08:30am 28.5 CALM 0 0 1012.9 - 2.0 - Partly cloudy 10 - - - -
29/08:00am 26.5 CALM 0 0 1012.7 - 2.0 - - 10 - - - -
29/07:30am 24.2 CALM 0 0 1012.3 - 2.0 - - 10 - - - -
29/07:00am 22.6 CALM 0 0 1012.0 - 2.0 - - 10 - - - -
29/06:30am 22.4 CALM 0 0 1011.8 - 2.0 - - 10 - - - -
29/06:00am 22.6 CALM 0 0 1011.4 - 2.0 - - 10 - - - -
29/05:30am 22.7 CALM 0 0 1011.2 - 2.0 - - 10 - - - -
29/05:00am 23.1 CALM 0 0 1010.8 - 2.0 - - 10 - - - -
29/04:30am 23.1 CALM 0 0 1010.4 - 2.0 - - 10 - - - -
29/04:00am 23.2 ESE 2 3 1010.3 - 2.0 - - 10 - - - -
29/03:30am 23.3 ESE 3 5 1010.5 - 2.0 - - 10 - - - -
29/03:00am 23.7 CALM 0 0 1010.8 - 2.0 - - 10 - - - -
29/02:30am 24.3 CALM 0 0 1011.0 - 2.0 - - 10 - - - -
29/02:00am 24.0 CALM 0 0 1011.0 - 2.0 - Partly cloudy 10 - - - -
29/01:30am 24.7 CALM 0 0 1011.3 - 2.0 - Partly cloudy 10 - - - -
29/01:00am 24.4 ESE 4 5 1011.5 - 2.0 - - 10 - - - -
29/12:30am 24.6 ESE 3 4 1011.7 - 2.0 - Partly cloudy 10 - - - -
29/12:00am 24.8 ESE 3 4 1012.1 - 2.0 - Partly cloudy 10 - - - -
 
Date/Time
CST
Temp

°C
Wind Pressure Rain
since 9am
mm
Weather Cloud Vis
km
Sea
Height
m
Swell
Dir
 
Speed
knots
Gust
knots
hPa Trend Height
m
Period
s
Dir
28/11:30pm 25.1 ESE 1 3 1012.3 - 2.0 - Partly cloudy 10 - - - -
28/11:00pm 25.6 ESE 1 3 1012.5 - 2.0 - Partly cloudy 10 - - - -
28/10:30pm 25.1 SE 3 4 1012.4 - 2.0 - - 10 - - - -
28/10:00pm 25.2 CALM 0 0 1012.3 - 2.0 - - 10 - - - -
28/09:30pm 25.4 CALM 0 0 1012.3 - 2.0 - - 10 - - - -
28/09:00pm 25.8 CALM 0 0 1012.0 - 2.0 - - 10 - - - -
28/08:30pm 26.1 CALM 0 0 1011.7 - 2.0 - - 10 - - - -
28/08:00pm 26.6 CALM 0 0 1011.3 - 2.0 - - 10 - - - -
28/07:30pm 26.8 E 3 3 1010.8 - 2.0 - - 10 - - - -
28/07:00pm 27.3 ESE 3 4 1010.6 - 2.0 - - 10 - - - -
28/06:30pm 28.0 ESE 4 7 1010.1 - 2.0 - - 10 - - - -
28/06:00pm 27.6 SSE 3 4 1009.8 - 2.0 Rain Mostly clear 10 - - - -
28/05:30pm 27.6 SSE 4 6 1009.5 - 2.0 - Partly cloudy 10 - - - -
28/05:00pm 28.3 S 2 4 1009.4 - 1.2 - Partly cloudy 10 - - - -
28/04:56pm 28.4 S 3 5 1009.4 - 1.2 - Partly cloudy 10 - - - -
28/04:33pm 29.5 SE 3 7 1009.3 - 0.2 - Partly cloudy 4 - - - -
28/04:30pm 29.7 SSE 4 7 1009.3 - 0.0 - Partly cloudy 10 - - - -
28/04:00pm 29.8 S 7 11 1008.9 - 0.0 - Partly cloudy 10 - - - -
28/03:30pm 30.5 S 6 9 1008.9 - 0.0 - Partly cloudy 10 - - - -
28/03:00pm 30.5 WSW 2 4 1009.0 - 0.0 Showers Cloudy 10 - - - -
28/02:30pm 31.2 WNW 4 6 1009.0 - 0.0 - Partly cloudy 10 - - - -
28/02:00pm 31.1 WSW 5 8 1009.3 - 0.0 - Partly cloudy 10 - - - -
28/01:30pm 31.4 W 5 9 1009.5 - 0.0 - Partly cloudy 10 - - - -
28/01:00pm 33.1 ESE 7 12 1009.7 - 0.0 - Partly cloudy 10 - - - -
28/12:30pm 33.1 ESE 7 11 1010.0 - 0.0 - Partly cloudy 10 - - - -
28/12:00pm 32.9 E 8 12 1010.4 - 0.0 - Partly cloudy 10 - - - -
28/11:30am 32.6 E 11 15 1010.9 - 0.0 - Partly cloudy 10 - - - -
28/11:00am 32.4 ENE 10 13 1011.1 - 0.0 - Partly cloudy 10 - - - -
28/10:30am 32.9 ENE 9 13 1011.4 - 0.0 - Partly cloudy 10 - - - -
28/10:00am 31.6 E 10 13 1011.5 - 0.0 - Partly cloudy 10 - - - -
28/09:30am 31.7 ENE 9 12 1011.5 - 0.0 - Partly cloudy 10 - - - -
28/09:00am 31.3 ENE 4 7 1011.4 - 0.0 - Mostly clear 10 - - - -
28/08:30am 29.6 ESE 3 4 1011.1 - 0.0 - - 10 - - - -
28/08:00am 28.2 ESE 2 4 1011.0 - 0.0 - - 10 - - - -
28/07:30am 25.5 CALM 0 0 1010.8 - 0.0 - - 10 - - - -
28/07:00am 22.8 ESE 2 4 1010.4 - 0.0 - - 10 - - - -
28/06:30am 22.6 CALM 0 0 1010.1 - 0.0 - - 10 - - - -
28/06:00am 22.8 E 4 4 1009.8 - 0.0 - - 10 - - - -
28/05:30am 22.8 E 3 4 1009.6 - 0.0 - - 10 - - - -
28/05:00am 23.2 ENE 3 4 1009.4 - 0.0 - - 10 - - - -
28/04:30am 23.6 ENE 3 4 1009.3 - 0.0 - - 10 - - - -
28/04:00am 23.6 ENE 3 4 1009.4 - 0.0 - - 10 - - - -
28/03:30am 24.4 CALM 0 0 1009.5 - 0.0 - - 10 - - - -
28/03:00am 24.7 CALM 0 0 1009.6 - 0.0 - - 10 - - - -
28/02:30am 25.8 CALM 0 0 1009.8 - 0.0 - Partly cloudy 10 - - - -
28/02:00am 25.8 ESE 1 3 1010.0 - 0.0 - Cloudy 10 - - - -
28/01:30am 25.2 CALM 0 0 1010.2 - 0.0 - Cloudy 10 - - - -
28/01:00am 25.1 CALM 0 0 1010.4 - 0.0 - Cloudy 10 - - - -
28/12:30am 25.3 CALM 0 0 1010.7 - 0.0 - Partly cloudy 10 - - - -
28/12:00am 26.3 CALM 0 0 1010.9 - 0.0 - Mostly clear 10 - - - -
 
Date/Time
CST
Temp

°C
Wind Pressure Rain
since 9am
mm
Weather Cloud Vis
km
Sea
Height
m
Swell
Dir
 
Speed
knots
Gust
knots
hPa Trend Height
m
Period
s
Dir
27/11:30pm 26.8 CALM 0 0 1011.1 - 0.0 - Cloudy 10 - - - -
27/11:00pm 27.2 ESE 2 3 1011.2 - 0.0 - Cloudy 10 - - - -
27/10:30pm 27.6 E 3 5 1011.2 - 0.0 - Cloudy 10 - - - -
27/10:00pm 27.8 ESE 3 4 1011.4 - 0.0 - Cloudy 10 - - - -
27/09:30pm 28.1 ESE 5 7 1011.3 - 0.0 - Cloudy 10 - - - -
27/09:00pm 28.2 ESE 5 7 1011.2 - 0.0 - Cloudy 10 - - - -
27/08:30pm 28.3 ESE 7 13 1011.1 - 0.0 - Cloudy 10 - - - -
27/08:00pm 28.4 ESE 5 9 1010.7 - 0.0 - Cloudy 10 - - - -
27/07:30pm 28.4 ESE 6 9 1010.6 - 0.0 - Cloudy 10 - - - -
27/07:00pm 28.4 ESE 3 5 1010.4 - 0.0 - Cloudy 10 - - - -
27/06:30pm 28.8 ESE 6 8 1010.2 - 0.0 - Cloudy 10 - - - -
27/06:00pm 29.4 ESE 6 10 1009.7 - 0.0 - Cloudy 10 - - - -
27/05:30pm 30.3 ESE 6 8 1009.4 - 0.0 - Partly cloudy 10 - - - -
27/05:00pm 30.7 ESE 7 11 1009.1 - 0.0 - Cloudy 10 - - - -
27/04:30pm 31.0 ESE 7 10 1008.8 - 0.0 - Cloudy 10 - - - -
27/04:00pm 30.8 SE 5 8 1008.6 - 0.0 - Cloudy 10 - - - -
27/03:30pm 31.0 SE 6 12 1008.5 - 0.0 - Partly cloudy 10 - - - -
27/03:00pm 32.5 ESE 7 13 1008.6 - 0.0 - Cloudy 10 - - - -
27/02:30pm 33.6 SSE 6 10 1008.7 - 0.0 - Partly cloudy 10 - - - -
27/02:00pm 33.2 SSE 8 13 1009.1 - 0.0 - - 10 - - - -
27/01:30pm 32.9 SE 8 13 1009.5 - 0.0 - - 10 - - - -
27/01:00pm 32.0 SSE 9 14 1010.0 - 0.0 - - 10 - - - -
27/12:30pm 33.2 SSE 7 11 1010.2 - 0.0 - Partly cloudy 10 - - - -
27/12:00pm 32.5 ESE 7 11 1010.6 - 0.0 - Partly cloudy 10 - - - -
27/11:30am 32.4 ESE 8 12 1011.0 - 0.0 - Partly cloudy 10 - - - -
27/11:00am 32.6 E 8 12 1011.5 - 0.0 - - 10 - - - -
27/10:30am 31.5 ESE 8 13 1011.9 - 0.0 - - 10 - - - -
27/10:00am 31.4 ESE 8 12 1011.9 - 0.0 - - 10 - - - -
27/09:30am 30.0 ESE 7 11 1011.9 - 0.0 - Partly cloudy 10 - - - -

Other Formats:

Comma delimited format used in spreadsheet applications
http://www.bom.gov.au/fwo/IDD60701/IDD60701.94153.axf

JavaScript Object Notation format (JSON) in row-major order
http://www.bom.gov.au/fwo/IDD60701/IDD60701.94153.json